Aeroporto :
LOGIN :

Iscrizione | Disclaimer

   EN    FR    IT 

 










Sommario :    VFR   VFR Marginale   IFR   IFR Intensivo   IFR Molto Intensivo
Visibilità : 
Base nubi : 
>= 8 km
>= 3000ft
5 / 8 km
1000 / 3000 ft
1500m / 5 km
500 / 1000 ft
800 / 1500m
200 / 500 ft
< 800m
< 200 ft
Simboli :   Temporali  Nebbia  Neve Forte  Precipitazioni Forti  Vento > 20 kt
SIGMETs :   Varie  Temporali  Ghiacco  Turbolenza  Onda orograficha  Ceneri Vulcaniche






- Altitudine del aeroporto : 827 ft
- Codice IATA : EBM


DTTR - El Borma

ULTIMO METAR :
  • 012000Z AUTO 06019KT NCD 32/10 Q1009

METARs OBSOLETI :
  • 011900Z AUTO 05014KT NCD 34/10 Q1008
  • 011800Z AUTO 30010KT NCD 39/M03 Q1007

TAF TAF DTTR
Valido dal 01 a 16 ore il 02 a 01 ore UTC


011500Z 0116/0201 VRB03KT 9999 FEW026
BECMG 0116/0118 33006KT
BECMG 0118/0120 05017KT 6000 SCT030



MetMap, La meteo Aeronautica in un colpo d'occhio ! - Copyright ORBIFLY Dicembre 2007 - Disclaimer

ORBIFLY MET'MAP TEAM :

Programmazione e sviluppo : Alexandra Zaïnal
Concezione : Baudouin d'Aumeries
Aiuto per la programmazione : Marc-Olivier Méhu
Supporto tecnico e logistico : Manuel Goepfert
Aiuto per la traduzione : Arnaldo La Scala

Contatto : metmap@orbifly.com




FONTI E CREDITI :

   NOAA